Terminal Aerodrome Forecast
Issued by NWS

Home | Current Version | Previous Version | Text Only | Print | Product List | Glossary On
Versions: 1 2 3 4 5 6 7 8 9 10 11 12 13 14 15 16 17 18 19 20 21 22
000
FTUS43 KLSX 241600 AAC
TAFUIN
TAF AMD
KUIN 241645Z 2417/2512 21005KT 1/4SM FG VV002
     FM241800 20006KT 1SM BR OVC004
     FM241900 20006KT 2SM BR BKN006
     FM242000 20007KT P6SM BKN012
     FM242100 20008KT P6SM SCT250
     FM250400 28006KT 3SM BR SCT250=

USA.gov is the U.S. government's official web portal to all federal, state and local government web resources and services.